createdAt,value
2017-12-17T00:00:50.231Z,0
2017-12-17T00:01:51.631Z,0
2017-12-17T00:02:53.291Z,0
2017-12-17T00:03:54.699Z,0
2017-12-17T00:04:56.379Z,0
2017-12-17T00:05:57.776Z,0
2017-12-17T00:06:59.461Z,0
2017-12-17T00:08:00.857Z,0
2017-12-17T00:09:02.546Z,0
2017-12-17T00:10:03.940Z,0
2017-12-17T00:11:05.648Z,0
2017-12-17T00:12:07.052Z,0
2017-12-17T00:13:08.451Z,0
2017-12-17T00:14:10.152Z,0
2017-12-17T00:15:11.551Z,0
2017-12-17T00:16:12.950Z,0
2017-12-17T00:17:14.487Z,0
2017-12-17T00:18:15.876Z,0
2017-12-17T00:19:17.276Z,0
2017-12-17T00:20:18.801Z,0
2017-12-17T00:21:20.200Z,0
2017-12-17T00:22:21.887Z,0
2017-12-17T00:23:23.411Z,0
2017-12-17T00:24:24.971Z,0
2017-12-17T00:25:26.368Z,0
2017-12-17T00:26:28.053Z,0
2017-12-17T00:27:29.448Z,0
2017-12-17T00:28:31.142Z,0
2017-12-17T00:29:32.539Z,0
2017-12-17T00:30:34.224Z,0
2017-12-17T00:31:35.625Z,0
2017-12-17T00:32:37.309Z,0
2017-12-17T00:33:38.709Z,0
2017-12-17T00:34:40.111Z,0
2017-12-17T00:35:41.630Z,0
2017-12-17T00:36:43.425Z,0
2017-12-17T00:37:44.826Z,0
2017-12-17T00:38:46.368Z,0
2017-12-17T00:39:47.801Z,0
2017-12-17T00:40:49.200Z,0
2017-12-17T00:41:50.890Z,0
2017-12-17T00:42:52.293Z,0
2017-12-17T00:43:53.686Z,0
2017-12-17T00:44:55.226Z,0
2017-12-17T00:45:56.618Z,0
2017-12-17T00:46:58.297Z,0
2017-12-17T00:47:59.698Z,0
2017-12-17T00:49:01.098Z,0
2017-12-17T00:50:02.627Z,0
2017-12-17T00:51:04.017Z,0
2017-12-17T00:52:05.415Z,0
2017-12-17T00:53:06.939Z,0
2017-12-17T00:54:08.335Z,0
2017-12-17T00:55:10.024Z,0
2017-12-17T00:56:11.427Z,0
2017-12-17T00:57:13.108Z,0
2017-12-17T00:58:14.514Z,0
2017-12-17T00:59:15.905Z,0
2017-12-17T01:00:17.431Z,0
2017-12-17T01:01:18.832Z,0
2017-12-17T01:02:20.266Z,0
2017-12-17T01:03:21.958Z,0
2017-12-17T01:04:23.357Z,0
2017-12-17T01:05:24.763Z,0
2017-12-17T01:06:26.309Z,0
2017-12-17T01:07:27.709Z,0
2017-12-17T01:08:29.108Z,0
2017-12-17T01:09:30.808Z,0
2017-12-17T01:10:32.226Z,0
2017-12-17T01:11:33.890Z,0
2017-12-17T01:12:35.288Z,0
2017-12-17T01:13:36.974Z,0
2017-12-17T01:14:38.373Z,0
2017-12-17T01:15:39.774Z,0
2017-12-17T01:16:41.296Z,0
2017-12-17T01:17:42.701Z,0
2017-12-17T01:18:44.099Z,0
2017-12-17T01:19:45.618Z,0
2017-12-17T01:20:47.018Z,0
2017-12-17T01:21:48.705Z,0
2017-12-17T01:22:50.102Z,0
2017-12-17T01:23:51.789Z,0
2017-12-17T01:24:53.198Z,0
2017-12-17T01:25:54.585Z,0
2017-12-17T01:26:56.126Z,0
2017-12-17T01:27:57.538Z,0
2017-12-17T01:28:58.939Z,0
2017-12-17T01:30:00.634Z,0
2017-12-17T01:31:02.033Z,0
2017-12-17T01:32:03.730Z,0
2017-12-17T01:33:05.125Z,0
2017-12-17T01:34:06.537Z,0
2017-12-17T01:35:08.041Z,0
2017-12-17T01:36:09.445Z,0
2017-12-17T01:37:10.850Z,0
2017-12-17T01:38:12.363Z,0
2017-12-17T01:39:13.761Z,0
2017-12-17T01:40:15.159Z,0
2017-12-17T01:41:16.686Z,0
2017-12-17T01:42:18.081Z,0
2017-12-17T01:43:19.769Z,0
2017-12-17T01:44:21.170Z,0
2017-12-17T01:45:22.568Z,0
2017-12-17T01:46:24.091Z,0
2017-12-17T01:47:25.498Z,0
2017-12-17T01:48:26.898Z,0
2017-12-17T01:49:28.414Z,0
2017-12-17T01:50:29.813Z,0
2017-12-17T01:51:31.522Z,0
2017-12-17T01:52:32.924Z,0
2017-12-17T01:53:34.583Z,0
2017-12-17T01:54:35.983Z,0
2017-12-17T01:55:37.381Z,0
2017-12-17T01:56:38.905Z,0
2017-12-17T01:57:40.304Z,0
2017-12-17T01:58:41.704Z,0
2017-12-17T01:59:43.226Z,0
2017-12-17T02:00:44.623Z,0
2017-12-17T02:01:46.312Z,0
2017-12-17T02:02:47.708Z,0
2017-12-17T02:03:49.398Z,0
2017-12-17T02:04:50.798Z,0
2017-12-17T02:05:52.482Z,0
2017-12-17T02:06:53.887Z,0
2017-12-17T02:07:55.583Z,0
2017-12-17T02:08:56.988Z,0
2017-12-17T02:09:58.653Z,0
2017-12-17T02:11:00.050Z,0
2017-12-17T02:12:01.737Z,0
2017-12-17T02:13:03.137Z,0
2017-12-17T02:14:04.880Z,0
2017-12-17T02:15:06.223Z,0
2017-12-17T02:16:07.909Z,0
2017-12-17T02:17:09.308Z,0
2017-12-17T02:18:10.996Z,0
2017-12-17T02:19:12.395Z,0
2017-12-17T02:20:14.083Z,0
2017-12-17T02:21:15.481Z,0
2017-12-17T02:22:17.167Z,0
2017-12-17T02:23:18.620Z,0
2017-12-17T02:24:20.253Z,0
2017-12-17T02:25:21.663Z,0
2017-12-17T02:26:23.345Z,0
2017-12-17T02:27:24.743Z,0
2017-12-17T02:28:26.459Z,0
2017-12-17T02:29:27.862Z,0
2017-12-17T02:30:29.510Z,0
2017-12-17T02:31:30.911Z,0
2017-12-17T02:32:32.595Z,0
2017-12-17T02:33:33.994Z,0
2017-12-17T02:34:35.402Z,0
2017-12-17T02:35:36.920Z,0
2017-12-17T02:36:38.327Z,0
2017-12-17T02:37:39.717Z,0
2017-12-17T02:38:41.238Z,0
2017-12-17T02:39:42.636Z,0
2017-12-17T02:40:44.061Z,0
2017-12-17T02:41:45.571Z,0
2017-12-17T02:42:46.971Z,0
2017-12-17T02:43:48.648Z,0
2017-12-17T02:44:50.044Z,0
2017-12-17T02:45:51.736Z,0
2017-12-17T02:46:53.127Z,0
2017-12-17T02:47:54.815Z,0
2017-12-17T02:48:56.218Z,0
2017-12-17T02:49:57.901Z,0
2017-12-17T02:50:59.302Z,0
2017-12-17T02:52:00.986Z,0
2017-12-17T02:53:02.385Z,0
2017-12-17T02:54:04.070Z,0
2017-12-17T02:55:05.472Z,0
2017-12-17T02:56:06.873Z,0
2017-12-17T02:57:08.394Z,0
2017-12-17T02:58:09.792Z,0
2017-12-17T02:59:11.194Z,0
2017-12-17T03:00:12.713Z,0
2017-12-17T03:01:14.112Z,0
2017-12-17T03:02:15.516Z,0
2017-12-17T03:03:17.036Z,0
2017-12-17T03:04:18.446Z,0
2017-12-17T03:05:19.844Z,0
2017-12-17T03:06:21.359Z,0
2017-12-17T03:07:22.788Z,0
2017-12-17T03:08:24.186Z,0
2017-12-17T03:09:25.678Z,0
2017-12-17T03:10:27.079Z,0
2017-12-17T03:11:28.480Z,0
2017-12-17T03:12:29.999Z,0
2017-12-17T03:13:31.398Z,0
2017-12-17T03:14:33.083Z,0
2017-12-17T03:15:34.482Z,0
2017-12-17T03:16:36.176Z,0
2017-12-17T03:17:37.574Z,0
2017-12-17T03:18:39.253Z,0
2017-12-17T03:19:40.689Z,0
2017-12-17T03:20:42.340Z,0
2017-12-17T03:21:43.741Z,0
2017-12-17T03:22:45.426Z,0
2017-12-17T03:23:46.827Z,0
2017-12-17T03:24:48.511Z,0
2017-12-17T03:25:49.911Z,0
2017-12-17T03:26:51.315Z,0
2017-12-17T03:27:52.831Z,0
2017-12-17T03:28:54.238Z,0
2017-12-17T03:29:55.645Z,0
2017-12-17T03:30:57.154Z,0
2017-12-17T03:31:58.561Z,0
2017-12-17T03:33:00.243Z,0
2017-12-17T03:34:01.649Z,0
2017-12-17T03:35:03.325Z,0
2017-12-17T03:36:04.726Z,0
2017-12-17T03:37:06.120Z,0
2017-12-17T03:38:07.646Z,0
2017-12-17T03:39:09.047Z,0
2017-12-17T03:40:10.452Z,0
2017-12-17T03:41:11.967Z,0
2017-12-17T03:42:13.365Z,0
2017-12-17T03:43:14.848Z,0
2017-12-17T03:44:16.247Z,0
2017-12-17T03:45:17.934Z,0
2017-12-17T03:46:19.340Z,0
2017-12-17T03:47:21.018Z,0
2017-12-17T03:48:22.420Z,0
2017-12-17T03:49:24.104Z,0
2017-12-17T03:50:25.502Z,0
2017-12-17T03:51:26.904Z,0
2017-12-17T03:52:28.425Z,0
2017-12-17T03:53:29.826Z,0
2017-12-17T03:54:31.224Z,0
2017-12-17T03:55:32.749Z,0
2017-12-17T03:56:34.145Z,0
2017-12-17T03:57:35.673Z,0
2017-12-17T03:58:37.075Z,0
2017-12-17T03:59:38.714Z,0
2017-12-17T04:00:40.123Z,0
2017-12-17T04:01:41.800Z,0
2017-12-17T04:02:43.198Z,0
2017-12-17T04:03:44.682Z,0
2017-12-17T04:04:46.083Z,0
2017-12-17T04:05:47.828Z,0
2017-12-17T04:06:49.218Z,0
2017-12-17T04:07:50.853Z,0
2017-12-17T04:08:52.256Z,0
2017-12-17T04:09:54.047Z,0
2017-12-17T04:10:55.445Z,0
2017-12-17T04:11:57.021Z,0
2017-12-17T04:12:58.422Z,0
2017-12-17T04:13:59.903Z,0
2017-12-17T04:15:01.306Z,0
2017-12-17T04:16:02.989Z,0
2017-12-17T04:17:04.388Z,0
2017-12-17T04:18:05.874Z,0
2017-12-17T04:19:07.284Z,0
2017-12-17T04:20:08.955Z,0
2017-12-17T04:21:10.356Z,0
2017-12-17T04:22:11.835Z,0
2017-12-17T04:23:13.364Z,0
2017-12-17T04:24:14.722Z,0
2017-12-17T04:25:16.122Z,0
2017-12-17T04:26:17.810Z,0
2017-12-17T04:27:19.208Z,0
2017-12-17T04:28:20.606Z,0
2017-12-17T04:29:22.122Z,0
2017-12-17T04:30:23.523Z,0
2017-12-17T04:31:24.923Z,0
2017-12-17T04:32:26.443Z,0
2017-12-17T04:33:27.864Z,0
2017-12-17T04:34:29.264Z,0
2017-12-17T04:35:30.766Z,0
2017-12-17T04:36:32.167Z,0
2017-12-17T04:37:33.571Z,0
2017-12-17T04:38:35.085Z,0
2017-12-17T04:39:36.484Z,0
2017-12-17T04:40:37.882Z,0
2017-12-17T04:41:39.418Z,0
2017-12-17T04:42:40.817Z,0
2017-12-17T04:43:42.243Z,0
2017-12-17T04:44:43.729Z,0
2017-12-17T04:45:45.130Z,0
2017-12-17T04:46:46.527Z,0
2017-12-17T04:47:48.049Z,0
2017-12-17T04:48:49.447Z,0
2017-12-17T04:49:50.843Z,0
2017-12-17T04:50:52.369Z,0
2017-12-17T04:51:53.772Z,0
2017-12-17T04:52:55.173Z,0
2017-12-17T04:53:56.711Z,0
2017-12-17T04:54:58.108Z,0
2017-12-17T04:55:59.513Z,0
2017-12-17T04:57:01.392Z,0
2017-12-17T04:58:02.789Z,0
2017-12-17T04:59:04.186Z,0
2017-12-17T05:00:05.752Z,0
2017-12-17T05:01:07.150Z,0
2017-12-17T05:02:08.573Z,0
2017-12-17T05:03:10.066Z,0
2017-12-17T05:04:11.462Z,0
2017-12-17T05:05:12.872Z,0
2017-12-17T05:06:14.387Z,0
2017-12-17T05:07:15.797Z,0
2017-12-17T05:08:17.200Z,0
2017-12-17T05:09:18.713Z,0
2017-12-17T05:10:20.124Z,0
2017-12-17T05:11:21.828Z,0
2017-12-17T05:12:23.230Z,0
2017-12-17T05:13:24.632Z,0
2017-12-17T05:14:26.115Z,0
2017-12-17T05:15:27.511Z,0
2017-12-17T05:16:28.907Z,0
2017-12-17T05:17:30.442Z,0
2017-12-17T05:18:31.892Z,0
2017-12-17T05:19:33.529Z,0
2017-12-17T05:20:34.955Z,0
2017-12-17T05:21:36.609Z,0
2017-12-17T05:22:38.006Z,0
2017-12-17T05:23:39.487Z,0
2017-12-17T05:24:40.893Z,0
2017-12-17T05:25:42.369Z,0
2017-12-17T05:26:43.777Z,0
2017-12-17T05:27:45.249Z,0
2017-12-17T05:28:46.648Z,0
2017-12-17T05:29:48.130Z,0
2017-12-17T05:30:49.525Z,0
2017-12-17T05:31:51.010Z,0
2017-12-17T05:32:52.407Z,0
2017-12-17T05:33:53.891Z,0
2017-12-17T05:34:55.292Z,0
2017-12-17T05:35:56.771Z,0
2017-12-17T05:36:58.175Z,0
2017-12-17T05:37:59.568Z,0
2017-12-17T05:39:01.140Z,0
2017-12-17T05:40:02.488Z,0
2017-12-17T05:41:03.888Z,0
2017-12-17T05:42:05.413Z,0
2017-12-17T05:43:06.815Z,0
2017-12-17T05:44:08.218Z,0
2017-12-17T05:45:10.940Z,0
2017-12-17T05:46:12.349Z,0
2017-12-17T05:47:13.748Z,0
2017-12-17T05:48:15.285Z,0
2017-12-17T05:49:16.689Z,0
2017-12-17T05:50:18.086Z,0
2017-12-17T05:51:19.607Z,0
2017-12-17T05:52:21.001Z,0
2017-12-17T05:53:22.401Z,0
2017-12-17T05:54:23.926Z,0
2017-12-17T05:55:25.329Z,0
2017-12-17T05:56:26.809Z,0
2017-12-17T05:57:28.212Z,0
2017-12-17T05:58:29.610Z,0
2017-12-17T05:59:31.127Z,0
2017-12-17T06:00:32.528Z,0
2017-12-17T06:01:33.928Z,0
2017-12-17T06:02:35.450Z,0
2017-12-17T06:03:36.851Z,0
2017-12-17T06:04:38.330Z,0
2017-12-17T06:05:39.730Z,0
2017-12-17T06:06:41.212Z,0
2017-12-17T06:07:42.615Z,0
2017-12-17T06:08:44.090Z,0
2017-12-17T06:09:45.492Z,0
2017-12-17T06:10:47.000Z,0
2017-12-17T06:11:48.402Z,0
2017-12-17T06:12:50.063Z,0
2017-12-17T06:13:51.468Z,0
2017-12-17T06:14:52.942Z,0
2017-12-17T06:15:54.341Z,0
2017-12-17T06:16:55.820Z,0
2017-12-17T06:17:57.219Z,0
2017-12-17T06:18:58.621Z,0
2017-12-17T06:20:00.143Z,0
2017-12-17T06:21:01.541Z,0
2017-12-17T06:22:02.943Z,0
2017-12-17T06:23:04.462Z,0
2017-12-17T06:24:05.877Z,0
2017-12-17T06:25:07.361Z,0
2017-12-17T06:26:08.747Z,0
2017-12-17T06:27:10.226Z,0
2017-12-17T06:28:11.628Z,0
2017-12-17T06:29:13.028Z,0
2017-12-17T06:30:14.545Z,0
2017-12-17T06:31:15.962Z,0
2017-12-17T06:32:17.362Z,0
2017-12-17T06:33:18.878Z,0
2017-12-17T06:34:20.276Z,0
2017-12-17T06:35:21.670Z,0
2017-12-17T06:36:23.192Z,0
2017-12-17T06:37:24.608Z,0
2017-12-17T06:38:26.022Z,0
2017-12-17T06:39:27.513Z,0
2017-12-17T06:40:29.160Z,0
2017-12-17T06:41:30.694Z,0
2017-12-17T06:42:32.001Z,0
2017-12-17T06:43:33.477Z,0
2017-12-17T06:44:34.881Z,0
2017-12-17T06:45:36.358Z,0
2017-12-17T06:46:37.757Z,0
2017-12-17T06:47:39.238Z,0
2017-12-17T06:48:40.634Z,0
2017-12-17T06:49:42.042Z,0
2017-12-17T06:50:43.560Z,0
2017-12-17T06:51:44.958Z,0
2017-12-17T06:52:46.369Z,0
2017-12-17T06:53:47.881Z,0
2017-12-17T06:54:49.280Z,0
2017-12-17T06:55:50.681Z,0
2017-12-17T06:56:52.260Z,0
2017-12-17T06:57:53.610Z,0
2017-12-17T06:58:54.964Z,0
2017-12-17T06:59:56.527Z,0
2017-12-17T07:00:57.928Z,4
2017-12-17T07:01:59.405Z,4
2017-12-17T07:03:00.810Z,4
2017-12-17T07:04:06.839Z,4
2017-12-17T07:05:14.203Z,4
2017-12-17T07:06:16.046Z,4
2017-12-17T07:07:17.572Z,0
2017-12-17T07:08:19.163Z,0
2017-12-17T07:09:20.930Z,4
2017-12-17T07:10:22.329Z,4
2017-12-17T07:11:23.836Z,8
2017-12-17T07:12:25.242Z,8
2017-12-17T07:13:27.043Z,8
2017-12-17T07:14:28.570Z,8
2017-12-17T07:15:29.970Z,8
2017-12-17T07:16:31.447Z,12
2017-12-17T07:17:32.864Z,12
2017-12-17T07:18:34.327Z,12
2017-12-17T07:19:35.728Z,20
2017-12-17T07:20:37.212Z,20
2017-12-17T07:21:38.633Z,20
2017-12-17T07:22:40.091Z,24
2017-12-17T07:23:41.492Z,24
2017-12-17T07:24:42.971Z,24
2017-12-17T07:25:44.412Z,28
2017-12-17T07:26:45.852Z,24
2017-12-17T07:27:47.256Z,28
2017-12-17T07:28:48.669Z,24
2017-12-17T07:29:50.174Z,36
2017-12-17T07:30:51.605Z,36
2017-12-17T07:31:53.012Z,36
2017-12-17T07:32:54.495Z,40
2017-12-17T07:33:55.891Z,44
2017-12-17T07:34:57.312Z,52
2017-12-17T07:35:58.719Z,56
2017-12-17T07:37:00.258Z,56
2017-12-17T07:38:01.658Z,52
2017-12-17T07:39:03.135Z,56
2017-12-17T07:40:04.933Z,72
2017-12-17T07:41:06.427Z,96
2017-12-17T07:42:08.224Z,84
2017-12-17T07:43:09.717Z,84
2017-12-17T07:44:11.119Z,104
2017-12-17T07:45:12.597Z,92
2017-12-17T07:46:13.999Z,108
2017-12-17T07:47:15.479Z,128
2017-12-17T07:48:16.882Z,132
2017-12-17T07:49:18.284Z,136
2017-12-17T07:50:19.801Z,128
2017-12-17T07:51:21.201Z,124
2017-12-17T07:52:22.606Z,128
2017-12-17T07:53:25.506Z,124
2017-12-17T07:54:26.863Z,120
2017-12-17T07:55:28.266Z,124
2017-12-17T07:56:29.876Z,136
2017-12-17T07:57:31.281Z,156
2017-12-17T07:58:32.856Z,172
2017-12-17T07:59:34.403Z,184
2017-12-17T08:00:35.804Z,180
2017-12-17T08:01:38.301Z,204
2017-12-17T08:02:39.725Z,204
2017-12-17T08:03:41.225Z,212
2017-12-17T08:04:42.630Z,248
2017-12-17T08:05:44.029Z,228
2017-12-17T08:06:45.509Z,224
2017-12-17T08:07:46.913Z,224
2017-12-17T08:08:48.717Z,228
2017-12-17T08:09:50.249Z,232
2017-12-17T08:10:51.650Z,268
2017-12-17T08:11:54.964Z,260
2017-12-17T08:12:58.052Z,284
2017-12-17T08:14:00.316Z,296
2017-12-17T08:15:02.304Z,348
2017-12-17T08:16:03.682Z,356
2017-12-17T08:17:05.284Z,392
2017-12-17T08:18:06.685Z,472
2017-12-17T08:19:08.085Z,424
2017-12-17T08:20:09.765Z,380
2017-12-17T08:21:11.184Z,388
2017-12-17T08:22:12.649Z,308
2017-12-17T08:23:14.052Z,284
2017-12-17T08:24:15.456Z,272
2017-12-17T08:25:17.063Z,312
2017-12-17T08:26:18.425Z,336
2017-12-17T08:27:19.997Z,340
2017-12-17T08:28:21.808Z,312
2017-12-17T08:29:24.422Z,304
2017-12-17T08:30:27.849Z,292
2017-12-17T08:31:29.295Z,284
2017-12-17T08:32:30.708Z,272
2017-12-17T08:33:32.115Z,276
2017-12-17T08:34:34.772Z,304
2017-12-17T08:35:37.741Z,392
2017-12-17T08:36:40.092Z,360
2017-12-17T08:37:41.833Z,376
2017-12-17T08:38:45.357Z,440
2017-12-17T08:39:48.383Z,484
2017-12-17T08:40:50.632Z,540
2017-12-17T08:41:52.446Z,400
2017-12-17T08:42:53.949Z,464
2017-12-17T08:43:55.350Z,528
2017-12-17T08:44:56.747Z,516
2017-12-17T08:45:58.954Z,472
2017-12-17T08:47:00.321Z,588
2017-12-17T08:48:01.996Z,564
2017-12-17T08:49:03.332Z,740
2017-12-17T08:50:05.698Z,912
2017-12-17T08:51:07.122Z,772
2017-12-17T08:52:08.751Z,900
2017-12-17T08:53:11.643Z,1160
2017-12-17T08:54:14.811Z,1076
2017-12-17T08:55:18.649Z,1180
2017-12-17T08:56:22.590Z,1196
2017-12-17T08:57:24.064Z,992
2017-12-17T08:58:25.911Z,840
2017-12-17T08:59:28.299Z,752
2017-12-17T09:00:29.792Z,740
2017-12-17T09:01:31.238Z,712
2017-12-17T09:02:33.714Z,680
2017-12-17T09:03:35.062Z,568
2017-12-17T09:04:36.703Z,544
2017-12-17T09:05:38.126Z,584
2017-12-17T09:06:40.683Z,584
2017-12-17T09:07:43.242Z,632
2017-12-17T09:08:44.707Z,664
2017-12-17T09:09:47.681Z,664
2017-12-17T09:10:49.250Z,704
2017-12-17T09:11:50.678Z,668
2017-12-17T09:12:53.310Z,764
2017-12-17T09:13:54.724Z,720
2017-12-17T09:14:56.848Z,832
2017-12-17T09:15:58.758Z,924
2017-12-17T09:17:00.330Z,860
2017-12-17T09:18:02.141Z,736
2017-12-17T09:19:03.633Z,820
2017-12-17T09:20:05.788Z,908
2017-12-17T09:21:07.188Z,992
2017-12-17T09:22:08.834Z,932
2017-12-17T09:23:10.408Z,872
2017-12-17T09:24:12.417Z,980
2017-12-17T09:25:14.572Z,872
2017-12-17T09:26:16.047Z,976
2017-12-17T09:27:17.533Z,972
2017-12-17T09:28:19.044Z,1016
2017-12-17T09:29:20.474Z,1000
2017-12-17T09:30:21.915Z,1032
2017-12-17T09:31:23.580Z,980
2017-12-17T09:32:25.011Z,716
2017-12-17T09:33:27.374Z,680
2017-12-17T09:34:28.906Z,604
2017-12-17T09:35:31.203Z,580
2017-12-17T09:36:34.033Z,660
2017-12-17T09:37:35.484Z,656
2017-12-17T09:38:36.910Z,672
2017-12-17T09:39:38.364Z,624
2017-12-17T09:40:40.010Z,632
2017-12-17T09:41:41.630Z,660
2017-12-17T09:42:43.287Z,836
2017-12-17T09:43:44.715Z,960
2017-12-17T09:44:46.189Z,1104
2017-12-17T09:45:48.053Z,1516
2017-12-17T09:46:49.683Z,1444
2017-12-17T09:47:51.095Z,1660
2017-12-17T09:48:52.569Z,2148
2017-12-17T09:49:53.977Z,1512
2017-12-17T09:50:55.437Z,1832
2017-12-17T09:51:56.851Z,1636
2017-12-17T09:52:58.322Z,1096
2017-12-17T09:54:00.143Z,856
2017-12-17T09:55:01.605Z,840
2017-12-17T09:56:03.009Z,1012
2017-12-17T09:57:04.412Z,964
2017-12-17T09:58:05.924Z,1136
2017-12-17T09:59:07.339Z,1400
2017-12-17T10:00:08.749Z,1220
2017-12-17T10:01:10.247Z,1460
2017-12-17T10:02:11.669Z,1548
2017-12-17T10:03:13.784Z,1276
2017-12-17T10:04:15.176Z,880
2017-12-17T10:05:16.696Z,768
2017-12-17T10:06:18.106Z,720
2017-12-17T10:07:19.514Z,756
2017-12-17T10:08:21.146Z,720
2017-12-17T10:09:22.553Z,648
2017-12-17T10:10:23.954Z,640
2017-12-17T10:11:25.565Z,640
2017-12-17T10:12:26.970Z,652
2017-12-17T10:13:28.461Z,712
2017-12-17T10:14:30.331Z,1188
2017-12-17T10:15:31.844Z,1248
2017-12-17T10:16:33.258Z,1208
2017-12-17T10:17:35.294Z,1084
2017-12-17T10:18:36.702Z,864
2017-12-17T10:19:38.243Z,776
2017-12-17T10:20:40.111Z,884
2017-12-17T10:21:41.918Z,908
2017-12-17T10:22:43.360Z,1252
2017-12-17T10:23:44.851Z,1284
2017-12-17T10:24:46.242Z,2476
2017-12-17T10:25:47.684Z,2916
2017-12-17T10:26:49.108Z,2464
2017-12-17T10:27:50.521Z,1624
2017-12-17T10:28:52.424Z,2424
2017-12-17T10:29:53.695Z,4044
2017-12-17T10:30:55.101Z,2972
2017-12-17T10:31:56.768Z,2264
2017-12-17T10:32:58.170Z,2792
2017-12-17T10:33:59.616Z,2588
2017-12-17T10:35:01.149Z,1772
2017-12-17T10:36:02.494Z,1316
2017-12-17T10:37:03.931Z,924
2017-12-17T10:38:06.537Z,820
2017-12-17T10:39:07.947Z,944
2017-12-17T10:40:09.388Z,1000
2017-12-17T10:41:10.927Z,960
2017-12-17T10:42:12.368Z,1116
2017-12-17T10:43:13.778Z,1048
2017-12-17T10:44:15.327Z,1096
2017-12-17T10:45:16.761Z,1224
2017-12-17T10:46:18.332Z,1652
2017-12-17T10:47:19.736Z,2020
2017-12-17T10:48:21.177Z,2748
2017-12-17T10:49:22.655Z,2840
2017-12-17T10:50:24.576Z,1924
2017-12-17T10:51:25.843Z,2572
2017-12-17T10:52:27.384Z,2820
2017-12-17T10:53:28.793Z,2736
2017-12-17T10:54:30.267Z,3040
2017-12-17T10:55:31.689Z,3072
2017-12-17T10:56:33.118Z,2232
2017-12-17T10:57:34.588Z,1780
2017-12-17T10:58:35.996Z,2312
2017-12-17T10:59:37.929Z,3156
2017-12-17T11:00:39.523Z,3352
2017-12-17T11:01:40.976Z,2552
2017-12-17T11:02:42.978Z,3028
2017-12-17T11:03:44.460Z,2756
2017-12-17T11:04:45.867Z,2496
2017-12-17T11:05:47.342Z,1952
2017-12-17T11:06:48.750Z,1604
2017-12-17T11:07:50.154Z,1444
2017-12-17T11:08:51.661Z,1576
2017-12-17T11:09:53.062Z,1516
2017-12-17T11:10:54.486Z,1216
2017-12-17T11:11:56.524Z,1108
2017-12-17T11:12:58.216Z,1684
2017-12-17T11:13:59.631Z,1948
2017-12-17T11:15:01.123Z,2112
2017-12-17T11:16:02.624Z,2580
2017-12-17T11:17:04.041Z,3564
2017-12-17T11:18:05.651Z,3328
2017-12-17T11:19:07.054Z,2804
2017-12-17T11:20:08.807Z,2440
2017-12-17T11:21:10.215Z,2756
2017-12-17T11:22:11.822Z,2212
2017-12-17T11:23:13.230Z,2204
2017-12-17T11:24:14.702Z,2476
2017-12-17T11:25:16.110Z,2008
2017-12-17T11:26:17.627Z,1360
2017-12-17T11:27:19.034Z,1252
2017-12-17T11:28:20.442Z,1516
2017-12-17T11:29:21.903Z,1504
2017-12-17T11:30:23.307Z,976
2017-12-17T11:31:24.725Z,968
2017-12-17T11:32:26.266Z,1460
2017-12-17T11:33:27.682Z,2588
2017-12-17T11:34:29.146Z,3700
2017-12-17T11:35:30.790Z,4100
2017-12-17T11:36:32.197Z,4056
2017-12-17T11:37:33.628Z,4340
2017-12-17T11:38:35.073Z,4788
2017-12-17T11:39:36.481Z,4912
2017-12-17T11:40:37.893Z,4344
2017-12-17T11:41:39.390Z,3792
2017-12-17T11:42:40.796Z,3872
2017-12-17T11:43:42.198Z,3240
2017-12-17T11:44:43.707Z,2604
2017-12-17T11:45:45.120Z,2576
2017-12-17T11:46:46.524Z,2828
2017-12-17T11:47:48.037Z,3068
2017-12-17T11:48:49.444Z,2808
2017-12-17T11:49:50.850Z,2800
2017-12-17T11:50:52.584Z,2524
2017-12-17T11:51:53.980Z,4232
2017-12-17T11:52:55.386Z,3808
2017-12-17T11:53:56.879Z,3148
2017-12-17T11:54:58.299Z,2540
2017-12-17T11:55:59.710Z,2500
2017-12-17T11:57:01.201Z,3004
2017-12-17T11:58:02.605Z,2016
2017-12-17T11:59:04.011Z,2440
2017-12-17T12:00:05.522Z,1912
2017-12-17T12:01:06.953Z,2036
2017-12-17T12:02:08.357Z,2024
2017-12-17T12:03:09.861Z,1816
2017-12-17T12:04:11.269Z,2024
2017-12-17T12:05:12.671Z,2280
2017-12-17T12:06:14.164Z,2428
2017-12-17T12:07:15.566Z,1728
2017-12-17T12:08:16.972Z,1928
2017-12-17T12:09:19.612Z,2752
2017-12-17T12:10:21.051Z,2240
2017-12-17T12:11:22.700Z,2244
2017-12-17T12:12:24.107Z,1992
2017-12-17T12:13:25.519Z,1536
2017-12-17T12:14:26.922Z,1672
2017-12-17T12:15:28.326Z,1792
2017-12-17T12:16:29.877Z,1696
2017-12-17T12:17:31.277Z,2012
2017-12-17T12:18:32.685Z,1656
2017-12-17T12:19:34.090Z,2016
2017-12-17T12:20:35.558Z,1824
2017-12-17T12:21:36.966Z,1800
2017-12-17T12:22:38.378Z,1712
2017-12-17T12:23:39.886Z,1468
2017-12-17T12:24:41.310Z,1160
2017-12-17T12:25:42.713Z,1208
2017-12-17T12:26:44.201Z,1324
2017-12-17T12:27:45.604Z,1536
2017-12-17T12:28:47.004Z,1556
2017-12-17T12:29:48.532Z,1372
2017-12-17T12:30:49.945Z,1372
2017-12-17T12:31:51.406Z,1220
2017-12-17T12:32:52.812Z,1400
2017-12-17T12:33:54.280Z,1628
2017-12-17T12:34:55.716Z,1592
2017-12-17T12:35:57.177Z,1440
2017-12-17T12:36:58.598Z,1316
2017-12-17T12:38:00.003Z,1212
2017-12-17T12:39:01.482Z,1156
2017-12-17T12:40:02.889Z,1340
2017-12-17T12:41:04.292Z,1624
2017-12-17T12:42:05.805Z,1252
2017-12-17T12:43:07.206Z,976
2017-12-17T12:44:08.628Z,972
2017-12-17T12:45:10.228Z,956
2017-12-17T12:46:11.638Z,1184
2017-12-17T12:47:13.043Z,1388
2017-12-17T12:48:14.652Z,1316
2017-12-17T12:49:16.305Z,1532
2017-12-17T12:50:17.749Z,1180
2017-12-17T12:51:19.185Z,1140
2017-12-17T12:52:20.634Z,1064
2017-12-17T12:53:22.037Z,920
2017-12-17T12:54:23.500Z,848
2017-12-17T12:55:24.894Z,1128
2017-12-17T12:56:26.380Z,1220
2017-12-17T12:57:27.785Z,1732
2017-12-17T12:58:29.189Z,1300
2017-12-17T12:59:30.701Z,1024
2017-12-17T13:00:32.113Z,812
2017-12-17T13:01:33.533Z,664
2017-12-17T13:02:35.021Z,696
2017-12-17T13:03:36.425Z,876
2017-12-17T13:04:37.835Z,1080
2017-12-17T13:05:39.454Z,1164
2017-12-17T13:06:40.956Z,1016
2017-12-17T13:07:42.364Z,1036
2017-12-17T13:08:44.176Z,952
2017-12-17T13:09:45.579Z,756
2017-12-17T13:10:46.985Z,724
2017-12-17T13:11:48.706Z,724
2017-12-17T13:12:50.107Z,896
2017-12-17T13:13:51.510Z,1664
2017-12-17T13:14:53.232Z,1460
2017-12-17T13:15:54.636Z,1156
2017-12-17T13:16:56.314Z,1404
2017-12-17T13:17:57.718Z,1224
2017-12-17T13:18:59.169Z,1224
2017-12-17T13:20:00.841Z,1224
2017-12-17T13:21:02.623Z,1044
2017-12-17T13:22:04.027Z,924
2017-12-17T13:23:05.571Z,932
2017-12-17T13:24:06.975Z,804
2017-12-17T13:25:08.656Z,976
2017-12-17T13:26:10.060Z,724
2017-12-17T13:27:11.742Z,632
2017-12-17T13:28:13.145Z,656
2017-12-17T13:29:14.827Z,556
2017-12-17T13:30:16.234Z,528
2017-12-17T13:31:17.912Z,512
2017-12-17T13:32:19.343Z,564
2017-12-17T13:33:20.998Z,688
2017-12-17T13:34:22.402Z,872
2017-12-17T13:35:24.083Z,816
2017-12-17T13:36:25.492Z,796
2017-12-17T13:37:27.173Z,872
2017-12-17T13:38:28.575Z,1004
2017-12-17T13:39:30.257Z,1088
2017-12-17T13:40:31.658Z,980
2017-12-17T13:41:33.341Z,904
2017-12-17T13:42:34.749Z,1232
2017-12-17T13:43:36.427Z,1292
2017-12-17T13:44:37.832Z,1060
2017-12-17T13:45:39.241Z,776
2017-12-17T13:46:40.952Z,652
2017-12-17T13:47:42.357Z,616
2017-12-17T13:48:43.778Z,568
2017-12-17T13:49:45.480Z,632
2017-12-17T13:50:46.882Z,608
2017-12-17T13:51:48.288Z,564
2017-12-17T13:52:50.006Z,548
2017-12-17T13:53:51.406Z,640
2017-12-17T13:54:52.809Z,688
2017-12-17T13:55:54.533Z,676
2017-12-17T13:56:55.937Z,716
2017-12-17T13:57:57.341Z,812
2017-12-17T13:58:59.072Z,792
2017-12-17T14:00:00.465Z,824
2017-12-17T14:01:02.144Z,744
2017-12-17T14:02:03.549Z,652
2017-12-17T14:03:05.023Z,644
2017-12-17T14:04:06.429Z,640
2017-12-17T14:05:07.832Z,660
2017-12-17T14:06:09.549Z,508
2017-12-17T14:07:10.950Z,520
2017-12-17T14:08:12.353Z,548
2017-12-17T14:09:13.867Z,612
2017-12-17T14:10:15.273Z,640
2017-12-17T14:11:16.677Z,516
2017-12-17T14:12:18.396Z,528
2017-12-17T14:13:19.978Z,424
2017-12-17T14:14:21.380Z,344
2017-12-17T14:15:22.921Z,400
2017-12-17T14:16:24.327Z,372
2017-12-17T14:17:25.729Z,372
2017-12-17T14:18:27.468Z,452
2017-12-17T14:19:28.850Z,416
2017-12-17T14:20:30.536Z,400
2017-12-17T14:21:31.926Z,412
2017-12-17T14:22:33.619Z,348
2017-12-17T14:23:35.024Z,260
2017-12-17T14:24:36.429Z,232
2017-12-17T14:25:37.941Z,212
2017-12-17T14:26:39.352Z,196
2017-12-17T14:27:40.896Z,168
2017-12-17T14:28:42.504Z,188
2017-12-17T14:29:43.905Z,220
2017-12-17T14:30:45.325Z,200
2017-12-17T14:31:46.994Z,164